createdAt,value
2022-07-29T00:00:14.146Z,61.46
2022-07-29T00:00:45.789Z,61.38
2022-07-29T00:01:19.020Z,61.46
2022-07-29T00:01:53.294Z,61.02
2022-07-29T00:02:24.758Z,61.33
2022-07-29T00:02:56.317Z,60.96
2022-07-29T00:03:27.757Z,61.47
2022-07-29T00:03:59.193Z,61.36
2022-07-29T00:04:30.753Z,61.05
2022-07-29T00:05:02.974Z,61.12
2022-07-29T00:05:54.120Z,61.14
2022-07-29T00:06:25.720Z,61.31
2022-07-29T00:06:57.192Z,61.48
2022-07-29T00:07:28.643Z,61.35
2022-07-29T00:08:00.110Z,61.82
2022-07-29T00:08:31.514Z,61.54
2022-07-29T00:09:03.234Z,61.49
2022-07-29T00:09:50.962Z,61.48
2022-07-29T00:11:13.680Z,61.42
2022-07-29T00:11:45.128Z,61.22
2022-07-29T00:12:16.553Z,61.39
2022-07-29T00:12:56.482Z,61.68
2022-07-29T00:13:50.895Z,61.68
2022-07-29T00:14:22.603Z,61.66
2022-07-29T00:14:56.299Z,61.72
2022-07-29T00:15:28.267Z,61.70
2022-07-29T00:16:04.477Z,61.77
2022-07-29T00:16:55.366Z,61.78
2022-07-29T00:17:45.482Z,61.55
2022-07-29T00:19:05.955Z,62.19
2022-07-29T00:19:39.365Z,62.15
2022-07-29T00:20:14.190Z,61.78
2022-07-29T00:20:45.557Z,62.15
2022-07-29T00:21:16.954Z,61.90
2022-07-29T00:21:48.525Z,62.18
2022-07-29T00:22:20.784Z,62.44
2022-07-29T00:22:52.920Z,62.16
2022-07-29T00:23:24.291Z,62.25
2022-07-29T00:23:55.692Z,62.52
2022-07-29T00:24:27.088Z,62.31
2022-07-29T00:24:58.441Z,61.97
2022-07-29T00:25:29.909Z,62.62
2022-07-29T00:26:02.174Z,62.57
2022-07-29T00:26:33.667Z,62.24
2022-07-29T00:27:05.072Z,62.46
2022-07-29T00:27:37.379Z,62.23
2022-07-29T00:28:08.767Z,62.74
2022-07-29T00:28:40.261Z,62.41
2022-07-29T00:29:33.759Z,62.67
2022-07-29T00:30:04.743Z,62.58
2022-07-29T00:30:36.170Z,62.47
2022-07-29T00:31:08.935Z,62.46
2022-07-29T00:31:40.486Z,62.45
2022-07-29T00:32:30.328Z,62.30
2022-07-29T00:33:01.759Z,62.62
2022-07-29T00:33:33.160Z,62.47
2022-07-29T00:34:04.644Z,62.15
2022-07-29T00:34:54.732Z,62.54
2022-07-29T00:35:44.581Z,62.59
2022-07-29T00:36:15.956Z,62.66
2022-07-29T00:36:47.364Z,62.38
2022-07-29T00:37:18.727Z,62.54
2022-07-29T00:37:50.350Z,62.62
2022-07-29T00:38:21.996Z,62.18
2022-07-29T00:38:54.132Z,63.02
2022-07-29T00:39:25.626Z,62.63
2022-07-29T00:39:58.898Z,62.63
2022-07-29T00:40:48.681Z,62.44
2022-07-29T00:41:20.158Z,62.49
2022-07-29T00:41:51.605Z,62.58
2022-07-29T00:42:23.004Z,63.07
2022-07-29T00:42:54.676Z,63.04
2022-07-29T00:43:26.037Z,63.00
2022-07-29T00:43:57.598Z,62.80
2022-07-29T00:44:28.984Z,62.90
2022-07-29T00:45:00.350Z,62.95
2022-07-29T00:45:32.003Z,62.72
2022-07-29T00:46:03.376Z,62.66
2022-07-29T00:46:34.851Z,63.09
2022-07-29T00:47:07.035Z,63.27
2022-07-29T00:47:38.561Z,62.51
2022-07-29T00:48:10.265Z,63.01
2022-07-29T00:48:41.660Z,62.95
2022-07-29T00:49:32.009Z,63.07
2022-07-29T00:50:06.308Z,62.86
2022-07-29T00:50:38.299Z,62.80
2022-07-29T00:51:11.136Z,62.81
2022-07-29T00:51:42.580Z,63.31
2022-07-29T00:52:15.536Z,62.97
2022-07-29T00:52:48.877Z,63.11
2022-07-29T00:53:21.103Z,63.30
2022-07-29T00:53:53.661Z,63.28
2022-07-29T00:54:25.123Z,63.22
2022-07-29T00:54:57.361Z,63.08
2022-07-29T00:55:29.926Z,63.27
2022-07-29T00:56:01.424Z,62.97
2022-07-29T00:56:33.891Z,63.42
2022-07-29T00:57:07.611Z,62.76
2022-07-29T00:57:41.051Z,63.27
2022-07-29T00:58:14.808Z,63.19
2022-07-29T00:58:49.132Z,63.37
2022-07-29T00:59:20.706Z,63.21
2022-07-29T00:59:52.310Z,63.38
2022-07-29T01:00:45.473Z,63.32
2022-07-29T01:01:17.131Z,63.76
2022-07-29T01:01:48.635Z,63.70
2022-07-29T01:02:20.129Z,63.78
2022-07-29T01:02:51.833Z,63.72
2022-07-29T01:03:23.186Z,63.53
2022-07-29T01:03:54.661Z,63.78
2022-07-29T01:04:26.588Z,63.43
2022-07-29T01:04:58.523Z,63.87
2022-07-29T01:05:50.308Z,64.03
2022-07-29T01:06:23.489Z,63.52
2022-07-29T01:06:55.611Z,63.61
2022-07-29T01:07:28.341Z,63.82
2022-07-29T01:08:00.821Z,63.82
2022-07-29T01:08:33.988Z,63.77
2022-07-29T01:09:05.849Z,63.53
2022-07-29T01:09:45.981Z,63.68
2022-07-29T01:10:20.617Z,63.75
2022-07-29T01:10:53.072Z,63.52
2022-07-29T01:11:26.632Z,63.48
2022-07-29T01:11:59.117Z,63.92
2022-07-29T01:12:34.768Z,63.64
2022-07-29T01:13:08.441Z,63.80
2022-07-29T01:13:40.233Z,63.55
2022-07-29T01:14:12.666Z,63.78
2022-07-29T01:14:44.520Z,63.98
2022-07-29T01:15:16.259Z,63.57
2022-07-29T01:15:56.994Z,63.92
2022-07-29T01:16:33.784Z,64.09
2022-07-29T01:17:13.574Z,64.09
2022-07-29T01:17:52.760Z,63.98
2022-07-29T01:18:32.702Z,64.15
2022-07-29T01:19:24.063Z,63.70
2022-07-29T01:20:14.352Z,63.90
2022-07-29T01:21:19.890Z,63.92
2022-07-29T01:21:56.047Z,64.04
2022-07-29T01:22:37.481Z,63.83
2022-07-29T01:23:29.448Z,63.62
2022-07-29T01:24:29.712Z,63.98
2022-07-29T01:25:21.145Z,63.53
2022-07-29T01:26:34.238Z,63.57
2022-07-29T01:27:28.572Z,64.18
2022-07-29T01:28:01.281Z,64.12
2022-07-29T01:29:09.933Z,63.98
2022-07-29T01:29:48.844Z,64.30
2022-07-29T01:30:23.533Z,64.36
2022-07-29T01:30:57.438Z,64.47
2022-07-29T01:31:40.339Z,64.15
2022-07-29T01:32:34.295Z,63.94
2022-07-29T01:33:46.057Z,64.48
2022-07-29T01:34:28.799Z,64.12
2022-07-29T01:35:07.651Z,64.17
2022-07-29T01:35:43.698Z,64.57
2022-07-29T01:36:19.634Z,63.93
2022-07-29T01:37:12.736Z,63.92
2022-07-29T01:37:49.952Z,64.15
2022-07-29T01:38:42.341Z,64.10
2022-07-29T01:39:20.766Z,64.17
2022-07-29T01:39:55.032Z,64.27
2022-07-29T01:40:32.004Z,63.97
2022-07-29T01:41:09.666Z,63.94
2022-07-29T01:41:51.665Z,63.91
2022-07-29T01:42:36.386Z,64.07
2022-07-29T01:43:12.303Z,64.17
2022-07-29T01:43:56.217Z,64.45
2022-07-29T01:45:02.691Z,64.20
2022-07-29T01:45:52.767Z,64.34
2022-07-29T01:46:47.104Z,64.25
2022-07-29T01:47:24.351Z,64.59
2022-07-29T01:47:55.677Z,64.38
2022-07-29T01:48:35.873Z,64.36
2022-07-29T01:50:09.432Z,64.47
2022-07-29T01:50:48.200Z,64.66
2022-07-29T01:51:25.273Z,64.69
2022-07-29T01:52:12.168Z,65.00
2022-07-29T01:52:49.022Z,64.75
2022-07-29T01:53:38.018Z,64.58
2022-07-29T01:54:35.339Z,64.59
2022-07-29T01:55:14.469Z,64.84
2022-07-29T01:55:46.942Z,64.70
2022-07-29T01:56:39.662Z,64.44
2022-07-29T01:57:14.945Z,64.93
2022-07-29T01:57:50.038Z,65.18
2022-07-29T01:58:22.642Z,64.24
2022-07-29T01:58:55.438Z,64.69
2022-07-29T01:59:27.204Z,64.93
2022-07-29T02:00:01.700Z,64.95
2022-07-29T02:00:35.259Z,65.05
2022-07-29T02:01:25.967Z,64.94
2022-07-29T02:01:59.751Z,64.29
2022-07-29T02:02:33.579Z,64.57
2022-07-29T02:03:09.824Z,64.42
2022-07-29T02:03:45.760Z,64.26
2022-07-29T02:04:29.482Z,64.52
2022-07-29T02:05:03.308Z,64.67
2022-07-29T02:05:37.036Z,64.17
2022-07-29T02:06:11.674Z,64.48
2022-07-29T02:06:45.244Z,64.77
2022-07-29T02:07:20.842Z,64.54
2022-07-29T02:07:54.808Z,64.39
2022-07-29T02:08:29.161Z,64.47
2022-07-29T02:09:03.127Z,64.69
2022-07-29T02:09:37.257Z,64.82
2022-07-29T02:10:11.049Z,64.67
2022-07-29T02:11:02.022Z,64.41
2022-07-29T02:11:34.339Z,64.27
2022-07-29T02:12:08.278Z,64.60
2022-07-29T02:12:41.501Z,64.67
2022-07-29T02:13:15.066Z,64.28
2022-07-29T02:13:49.676Z,64.52
2022-07-29T02:14:23.313Z,64.90
2022-07-29T02:14:57.993Z,64.60
2022-07-29T02:15:32.923Z,64.67
2022-07-29T02:16:07.926Z,64.67
2022-07-29T02:16:41.691Z,64.49
2022-07-29T02:17:32.564Z,64.90
2022-07-29T02:18:18.164Z,64.49
2022-07-29T02:18:53.424Z,64.59
2022-07-29T02:19:46.381Z,64.80
2022-07-29T02:20:18.260Z,64.78
2022-07-29T02:20:53.189Z,65.29
2022-07-29T02:21:27.684Z,65.08
2022-07-29T02:22:19.121Z,65.18
2022-07-29T02:23:11.800Z,64.72
2022-07-29T02:24:53.656Z,64.53
2022-07-29T02:25:25.882Z,64.69
2022-07-29T02:26:09.867Z,65.62
2022-07-29T02:26:43.934Z,65.21
2022-07-29T02:27:16.096Z,64.84
2022-07-29T02:27:49.993Z,65.48
2022-07-29T02:28:25.080Z,65.07
2022-07-29T02:28:58.269Z,65.37
2022-07-29T02:30:45.470Z,64.98
2022-07-29T02:31:19.895Z,65.29
2022-07-29T02:31:53.483Z,65.08
2022-07-29T02:32:28.108Z,65.54
2022-07-29T02:33:00.188Z,65.21
2022-07-29T02:33:33.206Z,65.43
2022-07-29T02:34:24.156Z,65.26
2022-07-29T02:34:56.756Z,65.06
2022-07-29T02:35:28.646Z,65.45
2022-07-29T02:36:06.711Z,65.05
2022-07-29T02:36:39.571Z,65.24
2022-07-29T02:37:12.644Z,64.96
2022-07-29T02:38:06.432Z,65.50
2022-07-29T02:38:51.235Z,64.95
2022-07-29T02:39:25.296Z,65.33
2022-07-29T02:39:59.552Z,65.01
2022-07-29T02:40:49.750Z,65.29
2022-07-29T02:41:27.120Z,64.97
2022-07-29T02:42:08.246Z,65.34
2022-07-29T02:42:43.385Z,65.21
2022-07-29T02:43:15.085Z,65.25
2022-07-29T02:43:49.629Z,65.32
2022-07-29T02:44:24.946Z,65.68
2022-07-29T02:44:57.020Z,65.72
2022-07-29T02:45:30.328Z,65.22
2022-07-29T02:46:05.731Z,65.22
2022-07-29T02:47:16.415Z,65.31
2022-07-29T02:47:51.252Z,65.57
2022-07-29T02:48:33.223Z,65.54
2022-07-29T02:49:13.479Z,65.37
2022-07-29T02:50:12.915Z,65.60
2022-07-29T02:50:58.046Z,65.59
2022-07-29T02:51:44.102Z,65.30
2022-07-29T02:52:25.605Z,65.51
2022-07-29T02:53:03.230Z,65.89
2022-07-29T02:53:55.037Z,65.60
2022-07-29T02:54:39.968Z,65.56
2022-07-29T02:55:41.227Z,65.36
2022-07-29T02:56:17.376Z,65.44
2022-07-29T02:56:50.279Z,66.06
2022-07-29T02:57:30.048Z,65.92
2022-07-29T02:58:21.949Z,66.03
2022-07-29T02:59:00.282Z,66.17
2022-07-29T02:59:37.341Z,66.27
2022-07-29T03:00:10.524Z,65.78
2022-07-29T03:00:47.158Z,65.95
2022-07-29T03:01:24.014Z,65.86
2022-07-29T03:02:14.977Z,65.92
2022-07-29T03:02:53.093Z,65.82
2022-07-29T03:03:29.013Z,65.85
2022-07-29T03:04:04.235Z,66.08
2022-07-29T03:04:37.387Z,65.72
2022-07-29T03:05:21.773Z,65.63
2022-07-29T03:05:58.094Z,65.20
2022-07-29T03:06:37.873Z,65.68
2022-07-29T03:07:13.996Z,65.44
2022-07-29T03:07:50.272Z,65.50
2022-07-29T03:08:22.837Z,65.31
2022-07-29T03:09:46.126Z,65.37
2022-07-29T03:10:18.877Z,65.46
2022-07-29T03:11:09.345Z,66.01
2022-07-29T03:11:49.627Z,66.04
2022-07-29T03:12:23.416Z,65.66
2022-07-29T03:12:56.811Z,65.46
2022-07-29T03:13:29.407Z,65.77
2022-07-29T03:14:20.494Z,65.77
2022-07-29T03:15:11.181Z,65.63
2022-07-29T03:15:46.463Z,66.01
2022-07-29T03:16:20.358Z,65.47
2022-07-29T03:17:10.894Z,65.94
2022-07-29T03:17:44.075Z,66.01
2022-07-29T03:18:16.058Z,65.85
2022-07-29T03:18:48.548Z,66.03
2022-07-29T03:19:21.254Z,65.60
2022-07-29T03:19:53.078Z,65.80
2022-07-29T03:20:24.644Z,66.02
2022-07-29T03:20:56.197Z,65.64
2022-07-29T03:22:16.731Z,66.10
2022-07-29T03:22:51.165Z,66.25
2022-07-29T03:23:24.762Z,66.01
2022-07-29T03:23:56.129Z,66.02
2022-07-29T03:24:36.856Z,66.31
2022-07-29T03:25:09.619Z,66.14
2022-07-29T03:25:41.077Z,65.82
2022-07-29T03:26:13.940Z,65.88
2022-07-29T03:26:45.420Z,65.51
2022-07-29T03:27:17.306Z,65.75
2022-07-29T03:27:49.418Z,66.00
2022-07-29T03:28:21.006Z,65.86
2022-07-29T03:28:53.584Z,65.90
2022-07-29T03:29:25.870Z,65.87
2022-07-29T03:30:26.679Z,66.11
2022-07-29T03:30:58.752Z,66.44
2022-07-29T03:31:30.678Z,65.77
2022-07-29T03:32:07.960Z,65.86
2022-07-29T03:32:42.545Z,65.72
2022-07-29T03:33:16.692Z,65.80
2022-07-29T03:33:48.036Z,65.68
2022-07-29T03:34:38.870Z,65.97
2022-07-29T03:35:10.372Z,65.71
2022-07-29T03:35:42.437Z,66.23
2022-07-29T03:36:14.385Z,66.04
2022-07-29T03:36:45.800Z,66.38
2022-07-29T03:37:17.268Z,65.96
2022-07-29T03:37:49.003Z,66.24
2022-07-29T03:38:24.623Z,65.52
2022-07-29T03:38:58.655Z,66.03
2022-07-29T03:39:33.939Z,66.23
2022-07-29T03:40:09.669Z,66.05
2022-07-29T03:40:49.404Z,65.97
2022-07-29T03:41:23.613Z,65.92
2022-07-29T03:41:57.404Z,66.15
2022-07-29T03:42:34.483Z,66.42
2022-07-29T03:43:09.821Z,66.17
2022-07-29T03:43:49.102Z,66.34
2022-07-29T03:44:22.988Z,65.97
2022-07-29T03:44:56.699Z,65.83
2022-07-29T03:45:30.953Z,65.72
2022-07-29T03:46:23.296Z,66.34
2022-07-29T03:46:56.722Z,66.59
2022-07-29T03:47:51.162Z,66.37
2022-07-29T03:48:25.269Z,66.42
2022-07-29T03:49:00.925Z,66.21
2022-07-29T03:49:33.611Z,66.34
2022-07-29T03:50:11.393Z,66.18
2022-07-29T03:50:43.273Z,66.20
2022-07-29T03:51:15.271Z,65.98
2022-07-29T03:51:47.017Z,66.48
2022-07-29T03:52:19.071Z,66.23
2022-07-29T03:52:51.026Z,66.23
2022-07-29T03:53:22.760Z,66.45
2022-07-29T03:53:54.621Z,66.60
2022-07-29T03:54:27.580Z,66.67
2022-07-29T03:54:59.205Z,66.26
2022-07-29T03:55:37.309Z,66.57
2022-07-29T03:56:11.444Z,66.08
2022-07-29T03:56:47.290Z,66.54
2022-07-29T03:57:21.653Z,66.05
2022-07-29T03:57:56.642Z,66.32
2022-07-29T03:58:28.836Z,66.02
2022-07-29T03:59:02.832Z,66.17
2022-07-29T03:59:37.047Z,65.88
2022-07-29T04:00:27.948Z,66.48
2022-07-29T04:01:18.742Z,66.52
2022-07-29T04:01:51.379Z,66.35
2022-07-29T04:02:28.670Z,66.49
2022-07-29T04:03:04.723Z,66.08
2022-07-29T04:03:42.254Z,66.22
2022-07-29T04:04:14.258Z,66.77
2022-07-29T04:04:46.282Z,66.63
2022-07-29T04:05:18.838Z,66.45
2022-07-29T04:06:04.191Z,66.01
2022-07-29T04:06:40.324Z,66.60
2022-07-29T04:07:13.762Z,66.34
2022-07-29T04:07:48.613Z,66.53
2022-07-29T04:08:38.849Z,66.15
2022-07-29T04:09:10.915Z,66.74
2022-07-29T04:09:43.080Z,67.03
2022-07-29T04:10:16.707Z,66.37
2022-07-29T04:10:48.397Z,67.13
2022-07-29T04:11:20.012Z,66.55
2022-07-29T04:12:00.668Z,66.92
2022-07-29T04:12:35.181Z,66.66
2022-07-29T04:13:06.575Z,66.93
2022-07-29T04:13:37.933Z,66.68
2022-07-29T04:14:09.404Z,66.75
2022-07-29T04:14:40.825Z,66.89
2022-07-29T04:15:12.991Z,66.93
2022-07-29T04:15:44.706Z,66.69
2022-07-29T04:16:34.955Z,66.46
2022-07-29T04:17:06.417Z,66.63
2022-07-29T04:17:37.884Z,67.07
2022-07-29T04:18:27.789Z,66.33
2022-07-29T04:19:00.061Z,66.62
2022-07-29T04:19:32.098Z,66.66
2022-07-29T04:20:04.808Z,66.83
2022-07-29T04:20:36.159Z,66.82
2022-07-29T04:21:07.659Z,67.25
2022-07-29T04:21:40.101Z,67.31
2022-07-29T04:22:11.461Z,67.25
2022-07-29T04:22:43.032Z,67.36
2022-07-29T04:23:14.420Z,67.03
2022-07-29T04:23:53.827Z,67.09
2022-07-29T04:24:25.817Z,66.88
2022-07-29T04:25:01.783Z,66.56
2022-07-29T04:25:38.261Z,66.87
2022-07-29T04:26:11.743Z,66.73
2022-07-29T04:26:43.451Z,66.83
2022-07-29T04:27:14.921Z,66.89
2022-07-29T04:28:01.504Z,67.34
2022-07-29T04:28:32.869Z,67.22
2022-07-29T04:29:04.563Z,67.08
2022-07-29T04:29:36.452Z,67.54
2022-07-29T04:30:28.217Z,67.19
2022-07-29T04:30:59.979Z,67.04
2022-07-29T04:31:31.569Z,67.23
2022-07-29T04:32:03.042Z,67.30
2022-07-29T04:32:34.393Z,67.00
2022-07-29T04:33:08.026Z,66.62
2022-07-29T04:33:40.464Z,67.40
2022-07-29T04:34:12.746Z,67.48
2022-07-29T04:34:46.441Z,67.25
2022-07-29T04:35:37.940Z,67.39
2022-07-29T04:36:28.539Z,67.20
2022-07-29T04:37:01.217Z,66.81
2022-07-29T04:37:32.581Z,66.69
2022-07-29T04:38:05.592Z,66.94
2022-07-29T04:38:36.965Z,67.52
2022-07-29T04:39:08.321Z,67.25
2022-07-29T04:39:39.851Z,67.64
2022-07-29T04:40:11.685Z,67.66
2022-07-29T04:40:43.076Z,67.73
2022-07-29T04:41:14.576Z,67.32
2022-07-29T04:41:54.923Z,67.41
2022-07-29T04:42:29.444Z,67.44
2022-07-29T04:43:01.899Z,67.20
2022-07-29T04:43:37.292Z,67.41
2022-07-29T04:44:08.739Z,67.19
2022-07-29T04:44:43.275Z,67.77
2022-07-29T04:45:16.179Z,67.65
2022-07-29T04:45:47.597Z,67.34
2022-07-29T04:46:19.037Z,66.92
2022-07-29T04:47:09.635Z,67.47
2022-07-29T04:47:41.228Z,67.38
2022-07-29T04:48:12.617Z,67.44
2022-07-29T04:48:46.643Z,66.76
2022-07-29T04:49:18.156Z,67.03
2022-07-29T04:49:49.573Z,67.69
2022-07-29T04:50:20.980Z,67.12
2022-07-29T04:50:52.841Z,67.49
2022-07-29T04:51:24.887Z,67.66
2022-07-29T04:51:56.266Z,67.44
2022-07-29T04:52:27.637Z,67.58
2022-07-29T04:53:47.952Z,66.75
2022-07-29T04:54:19.623Z,67.02
2022-07-29T04:54:51.214Z,66.92
2022-07-29T04:55:22.572Z,67.23
2022-07-29T04:55:53.939Z,67.56
2022-07-29T04:56:25.282Z,66.88
2022-07-29T04:56:56.621Z,67.04
2022-07-29T04:57:28.205Z,66.78
2022-07-29T04:57:59.669Z,67.29
2022-07-29T04:58:36.377Z,66.69
2022-07-29T04:59:08.007Z,66.99
2022-07-29T04:59:39.410Z,67.06
2022-07-29T05:00:11.362Z,67.64
2022-07-29T05:00:42.935Z,66.51
2022-07-29T05:01:15.506Z,67.34
2022-07-29T05:01:46.951Z,67.47
2022-07-29T05:02:18.491Z,67.15
2022-07-29T05:02:50.625Z,67.71
2022-07-29T05:03:23.216Z,67.43
2022-07-29T05:03:59.895Z,67.38
2022-07-29T05:04:31.849Z,67.18
2022-07-29T05:05:52.510Z,67.25
2022-07-29T05:06:23.985Z,67.32
2022-07-29T05:06:55.560Z,67.33
2022-07-29T05:07:26.979Z,67.63
2022-07-29T05:07:58.377Z,67.29
2022-07-29T05:08:29.817Z,67.50
2022-07-29T05:09:01.163Z,67.92
2022-07-29T05:09:33.167Z,67.76
2022-07-29T05:10:04.993Z,67.96
2022-07-29T05:10:55.141Z,67.50
2022-07-29T05:11:30.087Z,67.34
2022-07-29T05:12:02.081Z,67.33
2022-07-29T05:12:33.439Z,67.47
2022-07-29T05:13:08.727Z,67.07
2022-07-29T05:13:45.366Z,67.85
2022-07-29T05:14:18.145Z,67.39
2022-07-29T05:14:49.929Z,67.76
2022-07-29T05:15:21.420Z,67.66
2022-07-29T05:15:52.905Z,67.79
2022-07-29T05:16:24.402Z,67.43
2022-07-29T05:16:57.620Z,67.76
2022-07-29T05:17:29.010Z,67.71
2022-07-29T05:18:01.276Z,67.66
2022-07-29T05:18:32.668Z,67.52
2022-07-29T05:19:04.023Z,67.55
2022-07-29T05:19:39.443Z,67.31
2022-07-29T05:20:11.451Z,67.56
2022-07-29T05:20:43.117Z,67.01
2022-07-29T05:21:14.609Z,67.32
2022-07-29T05:21:46.102Z,67.46
2022-07-29T05:22:19.113Z,66.85
2022-07-29T05:22:50.464Z,67.72
2022-07-29T05:23:21.837Z,67.54
2022-07-29T05:24:11.810Z,67.68
2022-07-29T05:24:43.318Z,67.12
2022-07-29T05:25:14.865Z,67.70
2022-07-29T05:25:47.158Z,67.52
2022-07-29T05:26:37.123Z,67.30
2022-07-29T05:27:08.578Z,67.81
2022-07-29T05:27:40.241Z,67.49
2022-07-29T05:28:12.242Z,67.53
2022-07-29T05:28:43.763Z,67.34
2022-07-29T05:29:45.019Z,67.23
2022-07-29T05:30:07.244Z,67.62
2022-07-29T05:30:38.817Z,67.27
2022-07-29T05:31:10.357Z,67.31
2022-07-29T05:31:41.786Z,67.93
2022-07-29T05:32:14.155Z,67.84
2022-07-29T05:32:45.558Z,67.55
2022-07-29T05:33:35.577Z,67.12
2022-07-29T05:34:08.173Z,67.44
2022-07-29T05:34:51.241Z,67.53
2022-07-29T05:35:41.931Z,67.32
2022-07-29T05:36:13.313Z,68.02
2022-07-29T05:36:44.651Z,67.49
2022-07-29T05:37:16.229Z,67.27
2022-07-29T05:37:47.717Z,67.78
2022-07-29T05:38:19.093Z,67.28
2022-07-29T05:38:51.728Z,67.12
2022-07-29T05:39:46.968Z,67.07
2022-07-29T05:40:16.204Z,67.27
2022-07-29T05:40:48.856Z,67.77
2022-07-29T05:41:20.791Z,67.61
2022-07-29T05:41:52.226Z,67.74
2022-07-29T05:42:24.122Z,67.96
2022-07-29T05:42:55.778Z,67.64
2022-07-29T05:43:31.014Z,67.21
2022-07-29T05:44:03.125Z,67.47
2022-07-29T05:44:53.172Z,66.96
2022-07-29T05:45:25.377Z,66.98
2022-07-29T05:45:57.630Z,67.03
2022-07-29T05:46:29.169Z,67.20
2022-07-29T05:47:00.706Z,66.89
2022-07-29T05:47:32.270Z,66.87
2022-07-29T05:48:03.818Z,67.37
2022-07-29T05:48:35.222Z,67.22
2022-07-29T05:49:07.450Z,66.77
2022-07-29T05:49:39.439Z,67.01
2022-07-29T05:50:29.557Z,67.26
2022-07-29T05:51:01.153Z,66.64
2022-07-29T05:51:33.977Z,67.43
2022-07-29T05:52:05.732Z,67.03
2022-07-29T05:52:37.149Z,67.00
2022-07-29T05:53:19.682Z,67.23
2022-07-29T05:53:52.015Z,66.97
2022-07-29T05:54:23.356Z,66.31
2022-07-29T05:54:54.920Z,66.56
2022-07-29T05:55:26.275Z,66.46
2022-07-29T05:55:57.666Z,66.92
2022-07-29T05:56:29.574Z,66.82
2022-07-29T05:57:00.962Z,67.04
2022-07-29T05:57:32.666Z,67.33
2022-07-29T05:58:22.539Z,67.10
2022-07-29T05:58:54.335Z,67.19
2022-07-29T05:59:30.169Z,66.95
2022-07-29T06:00:01.840Z,66.77
2022-07-29T06:00:33.360Z,67.24
2022-07-29T06:01:04.785Z,66.90
2022-07-29T06:01:54.999Z,67.20
2022-07-29T06:02:26.553Z,66.85
2022-07-29T06:02:57.928Z,66.47
2022-07-29T06:03:48.295Z,66.89
2022-07-29T06:04:20.215Z,66.68
2022-07-29T06:04:51.967Z,67.04
2022-07-29T06:05:23.893Z,66.99
2022-07-29T06:06:13.831Z,66.87
2022-07-29T06:07:03.650Z,66.63
2022-07-29T06:07:35.108Z,66.86
2022-07-29T06:08:08.071Z,66.93
2022-07-29T06:08:39.721Z,66.42
2022-07-29T06:09:12.245Z,66.68
2022-07-29T06:09:44.268Z,66.54
2022-07-29T06:10:15.738Z,66.65
2022-07-29T06:10:47.277Z,66.65
2022-07-29T06:11:18.649Z,66.70
2022-07-29T06:12:09.092Z,66.70
2022-07-29T06:13:29.884Z,65.89
2022-07-29T06:14:01.271Z,65.87
2022-07-29T06:14:33.544Z,65.76
2022-07-29T06:15:05.481Z,66.14
2022-07-29T06:15:36.936Z,66.19
2022-07-29T06:16:08.467Z,66.13
2022-07-29T06:16:39.909Z,66.13
2022-07-29T06:17:12.606Z,66.27
2022-07-29T06:17:59.183Z,65.91
2022-07-29T06:18:32.775Z,66.10
2022-07-29T06:19:05.240Z,66.26
2022-07-29T06:19:37.256Z,66.60
2022-07-29T06:20:10.787Z,66.07
2022-07-29T06:21:01.130Z,66.09
2022-07-29T06:21:32.547Z,65.72
2022-07-29T06:22:04.345Z,66.24
2022-07-29T06:22:35.790Z,66.04
2022-07-29T06:23:07.406Z,65.99
2022-07-29T06:23:39.624Z,66.10
2022-07-29T06:24:15.299Z,66.23
2022-07-29T06:24:46.993Z,66.39
2022-07-29T06:25:18.349Z,66.38
2022-07-29T06:26:40.169Z,65.97
2022-07-29T06:28:01.349Z,66.26
2022-07-29T06:28:33.721Z,66.17
2022-07-29T06:29:05.064Z,66.02
2022-07-29T06:29:36.397Z,66.06
2022-07-29T06:30:08.250Z,66.19
2022-07-29T06:30:40.552Z,65.80
2022-07-29T06:31:12.057Z,65.75
2022-07-29T06:31:43.658Z,66.15
2022-07-29T06:33:04.815Z,65.69
2022-07-29T06:33:55.057Z,65.29
2022-07-29T06:34:26.869Z,65.65
2022-07-29T06:35:17.720Z,65.62
2022-07-29T06:35:53.690Z,65.85
2022-07-29T06:36:26.564Z,66.23
2022-07-29T06:36:59.373Z,66.77
2022-07-29T06:37:49.724Z,66.79
2022-07-29T06:38:33.925Z,66.80
2022-07-29T06:39:09.753Z,66.45
2022-07-29T06:39:43.095Z,66.71
2022-07-29T06:40:33.101Z,66.05
2022-07-29T06:41:06.052Z,65.82
2022-07-29T06:41:37.464Z,66.29
2022-07-29T06:42:08.829Z,66.37
2022-07-29T06:42:44.219Z,66.26
2022-07-29T06:43:15.631Z,65.77
2022-07-29T06:43:52.628Z,66.38
2022-07-29T06:44:26.051Z,65.93
2022-07-29T06:45:17.013Z,66.17
2022-07-29T06:45:48.374Z,66.07
2022-07-29T06:46:21.014Z,65.92
2022-07-29T06:46:52.599Z,66.46
2022-07-29T06:47:23.981Z,66.03
2022-07-29T06:47:55.391Z,66.70
2022-07-29T06:48:27.556Z,66.22
2022-07-29T06:48:58.982Z,66.38
2022-07-29T06:49:30.677Z,66.15
2022-07-29T06:50:02.087Z,65.69
2022-07-29T06:50:52.392Z,66.46
2022-07-29T06:51:24.245Z,65.88
2022-07-29T06:51:56.200Z,66.15
2022-07-29T06:52:46.313Z,66.35
2022-07-29T06:53:17.632Z,66.24
2022-07-29T06:54:07.786Z,66.31
2022-07-29T06:54:39.759Z,65.61
2022-07-29T06:55:11.180Z,65.15
2022-07-29T06:55:57.195Z,65.75
2022-07-29T06:56:28.705Z,65.61
2022-07-29T06:57:00.249Z,65.68
2022-07-29T06:57:31.660Z,65.15
2022-07-29T06:58:03.513Z,64.89
2022-07-29T06:58:36.239Z,64.93
2022-07-29T06:59:09.293Z,64.44
2022-07-29T06:59:41.009Z,64.87
2022-07-29T07:00:13.188Z,65.11
2022-07-29T07:02:44.634Z,64.73
2022-07-29T07:03:17.425Z,64.84
2022-07-29T07:03:48.842Z,64.82
2022-07-29T07:04:20.954Z,64.29
2022-07-29T07:04:52.893Z,65.17
2022-07-29T07:06:15.080Z,64.50
2022-07-29T07:06:46.692Z,65.12
2022-07-29T07:08:06.994Z,64.51
2022-07-29T07:08:38.332Z,63.97
2022-07-29T07:09:09.717Z,64.48
2022-07-29T07:09:41.158Z,64.46
2022-07-29T07:10:12.567Z,64.76
2022-07-29T07:10:44.064Z,64.76
2022-07-29T07:11:33.974Z,64.62
2022-07-29T07:12:05.644Z,64.30
2022-07-29T07:12:37.180Z,64.09
2022-07-29T07:13:08.751Z,64.06
2022-07-29T07:13:40.384Z,64.15
2022-07-29T07:14:30.194Z,63.66
2022-07-29T07:15:01.575Z,63.06
2022-07-29T07:15:39.115Z,62.96
2022-07-29T07:17:01.259Z,63.32
2022-07-29T07:17:32.884Z,63.49
2022-07-29T07:18:06.665Z,62.47
2022-07-29T07:18:38.016Z,62.59
2022-07-29T07:19:09.569Z,62.63
2022-07-29T07:19:41.153Z,62.23
2022-07-29T07:20:13.302Z,62.91
2022-07-29T07:20:45.689Z,63.48
2022-07-29T07:21:19.245Z,63.78
2022-07-29T07:21:51.027Z,64.58
2022-07-29T07:22:22.421Z,64.10
2022-07-29T07:22:53.797Z,63.55
2022-07-29T07:23:25.694Z,63.92
2022-07-29T07:23:57.242Z,64.75
2022-07-29T07:24:28.660Z,63.92
2022-07-29T07:25:00.023Z,62.24
2022-07-29T07:25:31.679Z,62.23
2022-07-29T07:26:04.019Z,62.43
2022-07-29T07:26:35.612Z,62.76
2022-07-29T07:27:07.005Z,63.04
2022-07-29T07:27:40.077Z,62.35
2022-07-29T07:28:11.614Z,62.32
2022-07-29T07:28:42.997Z,62.01
2022-07-29T07:29:14.562Z,61.71
2022-07-29T07:29:45.918Z,61.29
2022-07-29T07:30:17.466Z,61.98
2022-07-29T07:30:49.067Z,61.34
2022-07-29T07:31:39.335Z,62.84
2022-07-29T07:32:11.152Z,62.35
2022-07-29T07:32:42.676Z,63.04
2022-07-29T07:33:14.213Z,62.72
2022-07-29T07:33:45.684Z,63.40
2022-07-29T07:34:17.258Z,62.62
2022-07-29T07:35:00.361Z,62.91
2022-07-29T07:35:50.048Z,62.08
2022-07-29T07:36:21.553Z,61.07
2022-07-29T07:36:52.911Z,60.70
2022-07-29T07:37:25.596Z,60.57
2022-07-29T07:38:47.138Z,61.85
2022-07-29T07:39:18.514Z,61.44
2022-07-29T07:39:49.868Z,60.93
2022-07-29T07:40:21.228Z,60.81
2022-07-29T07:40:52.750Z,60.63
2022-07-29T07:41:24.176Z,61.90
2022-07-29T07:41:55.644Z,61.04
2022-07-29T07:43:16.221Z,61.77
2022-07-29T07:43:47.889Z,61.66
2022-07-29T07:44:19.585Z,61.56
2022-07-29T07:45:11.958Z,61.70
2022-07-29T07:45:43.031Z,61.36
2022-07-29T07:46:15.269Z,61.30
2022-07-29T07:46:46.639Z,60.37
2022-07-29T07:47:21.297Z,59.15
2022-07-29T07:47:53.628Z,59.76
2022-07-29T07:48:25.159Z,59.25
2022-07-29T07:48:56.530Z,59.71
2022-07-29T07:49:27.989Z,59.88
2022-07-29T07:49:59.584Z,59.67
2022-07-29T07:50:30.989Z,60.15
2022-07-29T07:51:02.501Z,60.37
2022-07-29T07:51:33.900Z,61.36
2022-07-29T07:52:05.712Z,61.32
2022-07-29T07:53:04.115Z,61.14
2022-07-29T07:53:36.149Z,62.02
2022-07-29T07:54:25.914Z,61.81
2022-07-29T07:54:57.289Z,60.39
2022-07-29T07:55:28.700Z,58.58
2022-07-29T07:56:15.703Z,59.02
2022-07-29T07:57:05.947Z,60.04
2022-07-29T07:57:37.285Z,60.09